Portada
METAR-TAF:

METAR-TAF

Aeroports :

Kinloss, Escòcia

latitud: 57-39N, longitud: 003-34W, altitud: 7 m

Observació

L'informe es va fer fa 28 minuts, a les 09:50 UTC
Vent 8 kt del Est
Temperatura 8°C
Humitat 76%
Pressió 1028 hPa
Visibilitat 10 km o més
Cel ennuvolat a una alçada de 3500 ft

METAR: EGQK 090950Z 09008KT 9999 BKN035 08/04 Q1028 BLU

Hora: 11:18 (10:18 UTC)

Pronòstic

L'informe es va fer fa 3 hores i 1 minuts, a les 07:17 UTC
Pronòstic vàlid del 09 a les 09 UTC al 10 a les 03 UTC
Vent 5 kt del Est
Visibilitat 10 km o més
Núvols disperses a una alçada de 4000 ft
Probabilitat 30% :
Temporalment
l' 09 a les 18 UTC al 09 a les 24 UTC
Visibilitat: 7000 m
Cel ennuvolat a una alçada de 2200 ft
pluja
Probabilitat 30%
l' 10 a les 00 UTC al 10 a les 03 UTC
Visibilitat: 3000 m
boirina

TAF: EGQK 090717Z 0909/1003 10005KT 9999 SCT040 PROB30 TEMPO 0918/0924 7000 RA BKN022 PROB30 1000/1003 3000 BR

Observacions i pronòstics meteorològics de més de 4000 aeroports (METAR i TAF).

Les estacions disponibles són els punts grocs i vermells al mapa.

Posi el ratolí al punt desitjat per veure el nom de l'estació.

Feu clic per veure les observacions i els pronòstics meteorològics.

Per canviar el mapa: feu clic els botons verds amb una creu de color negre per apropar; al botó verd amb un guió per allunyar la imatge; o en les fletxes verdes per a mapes adjacents.


METAR-TAF: